Latest Weather Observations for Murrurundi Gap

IDN60801

Issued at 4:32 pm EDT Monday 30 March 2015 (issued every 30 minutes, with the page automatically refreshed every 10 minutes)

About weather observations | Map of weather stations | Latest weather observations for NSW | Other Formats
Station Details ID: 061392 Name: MURRURUNDI GAP AWS Lat: -31.74 Lon: 150.79 Height: 729.4 m
Data from the previous 72 hours. | See also: Recent months for locations in New South Wales
Date/Time
EDT
Temp
°C
App
Temp
°C
Dew
Point
Rel
Hum
%
Delta-T
°C
Wind Press
QNH
hPa
Press
MSL
hPa
Rain
since 9 am
mm
Dir
 
Spd
km/h
Gust
km/h
Spd
kts
Gust
kts
30/04:30pm 18.2 15.9 12.9 71 3.1 NW 17 24 9 13 1023.3 1020.2 0.6
30/04:00pm 21.1 18.4 9.0 46 6.6 E 13 17 7 9 1023.1 1020.0 0.0
30/03:30pm 21.3 18.3 7.9 42 7.2 ESE 13 17 7 9 1023.2 1020.1 0.0
30/03:00pm 21.4 18.3 7.3 40 7.5 ESE 13 20 7 11 1023.4 1020.3 0.0
30/02:30pm 22.0 19.3 7.4 39 7.8 SE 11 17 6 9 1023.6 1020.5 0.0
30/02:00pm 23.0 20.6 8.7 40 7.9 SE 11 17 6 9 1023.9 1020.8 0.0
30/01:30pm 21.7 18.2 8.6 43 7.2 SE 17 24 9 13 1024.1 1021.1 0.0
30/01:00pm 21.7 18.5 9.9 47 6.6 ESE 17 26 9 14 1024.6 1021.5 0.0
30/12:30pm 20.8 18.8 11.4 55 5.4 SE 13 17 7 9 1025.4 1022.4 0.0
30/12:00pm 19.9 17.6 10.6 55 5.2 SE 13 19 7 10 1025.8 1022.8 0.0
30/11:30am 19.4 16.3 12.2 63 4.1 SE 20 24 11 13 1025.8 1022.8 0.0
30/11:00am 18.1 15.1 13.6 75 2.6 SE 22 26 12 14 1026.2 1023.1 0.0
30/10:30am 17.1 14.6 14.2 83 1.7 SE 20 26 11 14 1026.1 1023.0 0.0
30/10:00am 16.1 14.0 13.6 85 1.4 SE 17 24 9 13 1026.4 1023.4 0.0
30/09:30am 16.4 13.8 13.7 84 1.6 ESE 20 24 11 13 1026.4 1023.4 0.0
30/09:00am 15.1 12.8 13.0 87 1.2 SE 17 20 9 11 1025.9 1022.9 0.0
30/08:30am 14.8 12.6 13.2 90 0.9 SE 17 20 9 11 1025.8 1022.8 0.0
30/08:00am 14.6 11.8 12.5 87 1.2 SE 19 26 10 14 1025.6 1022.6 0.0
30/07:30am 14.9 13.1 12.2 84 1.5 ESE 13 17 7 9 1025.5 1022.5 0.0
30/07:00am 14.4 11.2 11.2 81 1.8 ESE 19 22 10 12 1024.9 1021.8 0.0
30/06:30am 14.6 10.9 9.6 72 2.7 SE 19 20 10 11 1024.2 1021.2 0.0
30/06:00am 14.9 11.4 10.3 74 2.5 SE 19 20 10 11 1023.6 1020.5 0.0
30/05:30am 16.7 13.8 9.6 63 3.8 SE 15 19 8 10 1023.2 1020.1 0.0
30/05:00am 15.9 12.4 7.1 56 4.5 SE 15 17 8 9 1023.1 1020.0 0.0
30/04:30am 17.7 14.0 8.0 53 5.1 SE 17 20 9 11 1022.8 1019.8 0.0
30/04:00am 16.6 12.5 6.4 51 5.2 SE 17 20 9 11 1022.7 1019.7 0.0
30/03:30am 20.1 18.6 6.8 42 7.0 SSE 4 11 2 6 1022.9 1019.9 0.0
30/03:00am 17.9 14.1 5.8 45 6.1 ESE 15 19 8 10 1022.9 1019.9 0.0
30/02:30am 18.0 14.6 5.9 45 6.2 ESE 13 15 7 8 1023.3 1020.2 0.0
30/02:00am 18.2 15.1 7.3 49 5.7 SE 13 15 7 8 1023.6 1020.5 0.0
30/01:30am 18.3 14.3 4.8 41 6.7 SE 15 17 8 9 1023.7 1020.6 0.0
30/01:00am 18.9 15.3 5.0 40 7.0 SE 13 13 7 7 1023.9 1020.8 0.0
30/12:30am 19.0 15.1 3.6 36 7.5 SE 13 15 7 8 1024.1 1021.1 0.0
30/12:00am 18.9 15.0 3.5 36 7.5 ESE 13 15 7 8 1024.1 1021.1 0.0
 
Date/Time
EDT
Temp
°C
App
Temp
°C
Dew
Point
Rel
Hum
%
Delta-T
°C
Wind Press
QNH
hPa
Press
MSL
hPa
Rain
since 9 am
mm
Dir
 
Spd
km/h
Gust
km/h
Spd
kts
Gust
kts
29/11:30pm 19.6 15.7 3.3 34 8.0 ESE 13 15 7 8 1024.1 1021.1 0.0
29/11:00pm 19.7 15.8 3.4 34 8.0 SE 13 15 7 8 1024.2 1021.2 0.0
29/10:30pm 20.8 17.5 2.6 30 8.9 ESE 9 11 5 6 1024.4 1021.4 0.0
29/10:00pm 20.8 17.6 3.1 31 8.7 ESE 9 11 5 6 1024.2 1021.2 0.0
29/09:30pm 20.9 17.6 2.7 30 8.9 ESE 9 9 5 5 1024.0 1021.0 0.0
29/09:00pm 21.0 18.0 2.3 29 9.0 ESE 7 9 4 5 1023.6 1020.5 0.0
29/08:30pm 21.1 19.5 2.4 29 9.0 CALM 0 0 0 0 1023.5 1020.4 0.0
29/08:00pm 21.9 20.2 2.1 27 9.6 CALM 0 0 0 0 1023.4 1020.3 0.0
29/07:30pm 22.0 20.4 2.2 27 9.6 CALM 0 0 0 0 1023.2 1020.1 0.0
29/07:00pm 22.6 19.8 2.1 26 10.0 WNW 6 7 3 4 1022.9 1019.9 0.0
29/06:30pm 23.5 19.8 2.4 25 10.4 NNW 11 13 6 7 1022.7 1019.7 0.0
29/06:00pm 24.5 20.5 2.6 24 10.9 W 13 19 7 10 1022.6 1019.5 0.0
29/05:30pm 24.6 20.8 3.8 26 10.6 NW 13 19 7 10 1022.5 1019.4 0.0
29/05:00pm 24.7 19.9 4.5 27 10.4 NNW 19 28 10 15 1022.5 1019.4 0.0
29/04:30pm 25.2 20.1 4.3 26 10.8 W 20 37 11 20 1022.3 1019.2 0.0
29/04:00pm 25.2 19.4 4.3 26 10.8 NW 24 35 13 19 1022.3 1019.2 0.0
29/03:30pm 24.1 18.5 3.4 26 10.5 NW 22 41 12 22 1022.5 1019.4 0.0
29/03:00pm 24.1 17.3 1.1 22 11.1 WNW 26 39 14 21 1022.8 1019.8 0.0
29/02:30pm 24.1 18.6 4.0 27 10.3 NW 22 37 12 20 1023.1 1020.0 0.0
29/02:00pm 24.1 19.0 4.0 27 10.2 NW 20 35 11 19 1023.4 1020.3 0.0
29/01:30pm 22.9 17.3 5.3 32 9.1 NW 24 37 13 20 1023.7 1020.6 0.0
29/01:00pm 21.8 15.8 6.9 38 7.9 NNW 28 37 15 20 1024.2 1021.2 0.0
29/12:30pm 23.4 17.9 9.0 40 8.0 NW 28 39 15 21 1024.6 1021.5 0.0
29/12:00pm 23.5 19.8 10.2 43 7.5 NW 20 37 11 20 1024.6 1021.5 0.0
29/11:30am 20.5 15.8 9.1 48 6.3 NNW 24 35 13 19 1024.9 1021.8 0.0
29/11:00am 20.6 16.6 9.2 48 6.2 NNW 20 32 11 17 1025.0 1021.9 0.0
29/10:30am 19.8 16.8 9.1 50 5.8 NW 15 20 8 11 1024.9 1021.8 0.0
29/10:00am 19.5 16.2 9.4 52 5.5 NW 17 24 9 13 1024.9 1021.8 0.0
29/09:30am 18.4 14.9 8.7 53 5.2 NNW 17 22 9 12 1025.1 1022.0 0.0
29/09:00am 17.2 16.3 9.1 59 4.3 ENE 4 9 2 5 1025.0 1021.9 0.0
29/08:30am 15.5 14.9 10.5 72 2.7 ESE 4 9 2 5 1024.6 1021.5 0.0
29/08:00am 13.8 12.1 10.0 78 2.0 ESE 9 9 5 5 1024.0 1021.0 0.0
29/07:30am 12.2 10.2 10.3 88 1.0 ESE 11 17 6 9 1023.7 1020.6 0.0
29/07:00am 10.4 7.2 9.8 96 0.3 SE 17 19 9 10 1023.1 1020.0 0.0
29/06:30am 10.5 7.1 9.3 92 0.6 ESE 17 20 9 11 1022.7 1019.7 0.0
29/06:00am 10.1 6.1 8.2 88 1.0 SE 19 20 10 11 1022.5 1019.4 0.0
29/05:30am 10.5 6.3 8.4 87 1.1 SE 20 22 11 12 1022.5 1019.4 0.0
29/05:00am 12.1 8.1 8.9 81 1.7 SE 20 22 11 12 1022.3 1019.2 0.0
29/04:30am 11.6 7.5 8.8 83 1.4 SE 20 22 11 12 1022.3 1019.2 0.0
29/04:00am 11.7 7.6 8.7 82 1.5 SE 20 24 11 13 1022.1 1019.0 0.0
29/03:30am 12.2 8.1 8.7 79 1.8 SE 20 24 11 13 1022.2 1019.1 0.0
29/03:00am 13.0 8.9 8.7 75 2.2 SE 20 24 11 13 1022.4 1019.3 0.0
29/02:30am 13.1 9.0 8.6 74 2.3 ESE 20 20 11 11 1022.7 1019.7 0.0
29/02:00am 12.9 8.9 9.0 77 2.0 ESE 20 24 11 13 1022.8 1019.8 0.0
29/01:30am 13.2 9.1 8.5 73 2.4 ESE 20 22 11 12 1022.9 1019.9 0.0
29/01:00am 13.0 8.8 7.5 69 2.8 ESE 19 22 10 12 1023.1 1020.0 0.0
29/12:30am 14.3 9.0 8.5 68 3.0 SE 26 32 14 17 1022.9 1019.9 0.0
29/12:00am 14.3 9.0 6.9 61 3.7 SE 24 30 13 16 1023.1 1020.0 0.0
 
Date/Time
EDT
Temp
°C
App
Temp
°C
Dew
Point
Rel
Hum
%
Delta-T
°C
Wind Press
QNH
hPa
Press
MSL
hPa
Rain
since 9 am
mm
Dir
 
Spd
km/h
Gust
km/h
Spd
kts
Gust
kts
28/11:30pm 13.7 8.1 5.6 58 4.0 ESE 24 26 13 14 1023.3 1020.2 0.0
28/11:00pm 14.1 8.9 5.5 56 4.2 ESE 22 28 12 15 1023.5 1020.4 0.0
28/10:30pm 14.4 9.2 5.7 56 4.3 SE 22 26 12 14 1023.4 1020.3 0.0
28/10:00pm 16.0 10.9 6.2 52 4.9 SE 22 28 12 15 1023.6 1020.5 0.0
28/09:30pm 16.6 11.1 6.1 50 5.3 SE 24 30 13 16 1023.4 1020.3 0.0
28/09:00pm 17.2 10.8 5.2 45 6.0 SE 28 32 15 17 1023.1 1020.0 0.0
28/08:30pm 17.3 11.5 4.6 43 6.3 SE 24 32 13 17 1022.8 1019.8 0.0
28/08:00pm 17.7 12.4 2.8 37 7.1 SE 20 30 11 16 1022.5 1019.4 0.0
28/07:30pm 18.5 12.6 1.5 32 8.0 SSE 22 30 12 16 1022.1 1019.0 0.0
28/07:00pm 19.0 13.5 0.6 29 8.5 SSE 19 24 10 13 1021.9 1018.8 0.0
28/06:30pm 19.5 14.4 0.5 28 8.8 SE 17 22 9 12 1021.5 1018.5 0.0
28/06:00pm 20.6 15.4 0.4 26 9.4 SSE 17 24 9 13 1021.5 1018.5 0.0
28/05:30pm 21.3 15.7 1.0 26 9.6 SE 20 26 11 14 1021.4 1018.3 0.0
28/05:00pm 21.9 17.0 2.1 27 9.6 SE 17 24 9 13 1021.3 1018.2 0.0
28/04:30pm 22.5 17.4 3.1 28 9.6 SE 19 26 10 14 1021.3 1018.2 0.0
28/04:00pm 22.5 17.4 3.1 28 9.6 ESE 19 24 10 13 1021.4 1018.3 0.0
28/03:30pm 23.9 19.9 2.7 25 10.6 SSE 13 24 7 13 1021.7 1018.6 0.0
28/03:00pm 23.6 19.4 1.9 24 10.6 SE 13 22 7 12 1021.8 1018.7 0.0
28/02:30pm 24.8 21.4 1.7 22 11.4 ESE 9 24 5 13 1022.1 1019.0 0.0
28/02:00pm 24.3 20.3 0.6 21 11.3 ESE 11 17 6 9 1022.3 1019.2 0.0
28/01:30pm 23.1 19.1 -2.5 18 11.5 NW 9 19 5 10 1022.7 1019.7 0.0
28/01:00pm 21.6 17.6 0.8 25 9.8 ESE 11 22 6 12 1023.2 1020.1 0.0
28/12:30pm 21.1 17.8 2.4 29 9.1 ENE 9 17 5 9 1023.6 1020.5 0.0
28/12:00pm 20.0 15.2 2.4 31 8.4 E 17 22 9 12 1023.9 1020.8 0.0
28/11:30am 18.3 13.0 1.8 33 7.8 ESE 19 24 10 13 1024.1 1021.1 0.0
28/11:00am 17.3 12.0 1.7 35 7.2 ESE 19 24 10 13 1024.2 1021.2 0.0
28/10:30am 17.1 12.1 3.4 40 6.6 ESE 19 26 10 14 1024.4 1021.4 0.0
28/10:00am 15.7 9.9 2.5 41 6.1 ESE 22 28 12 15 1024.3 1021.3 0.0
28/09:30am 15.5 9.9 3.6 45 5.7 ESE 22 28 12 15 1024.2 1021.2 0.0
28/09:00am 14.6 9.7 4.0 49 5.0 ESE 19 22 10 12 1024.0 1021.0 0.0
28/08:30am 12.3 7.6 3.0 53 4.3 ESE 17 22 9 12 1023.8 1020.7 0.0
28/08:00am 11.0 5.9 3.1 58 3.6 ESE 19 22 10 12 1023.4 1020.3 0.0
28/07:30am 10.7 5.6 2.8 58 3.6 ESE 19 20 10 11 1023.2 1020.1 0.0
28/07:00am 10.2 5.4 2.6 59 3.4 SE 17 20 9 11 1022.8 1019.8 0.0
28/06:30am 10.2 5.3 2.3 58 3.5 SE 17 19 9 10 1022.4 1019.3 0.0
28/06:00am 10.8 5.5 2.1 55 3.9 SE 19 20 10 11 1022.1 1019.0 0.0
28/05:30am 11.0 6.1 2.1 54 4.0 SE 17 20 9 11 1022.0 1018.9 0.0
28/05:00am 11.0 6.1 2.1 54 3.9 SE 17 20 9 11 1021.8 1018.7 0.0
28/04:30am 11.3 6.0 2.1 53 4.1 SE 19 24 10 13 1021.5 1018.5 0.0
28/04:00am 10.9 6.0 1.7 53 4.0 SE 17 20 9 11 1021.7 1018.6 0.0
28/03:30am 13.0 7.9 2.8 50 4.7 ESE 19 20 10 11 1021.9 1018.8 0.0
28/03:00am 12.8 8.0 2.6 50 4.6 SE 17 19 9 10 1022.0 1018.9 0.0
28/02:30am 13.2 8.3 2.1 47 5.0 ESE 17 20 9 11 1022.1 1019.0 0.0
28/02:00am 13.7 8.6 1.0 42 5.6 SE 17 22 9 12 1022.3 1019.2 0.0
28/01:30am 14.0 9.4 1.3 42 5.7 ESE 15 19 8 10 1022.4 1019.3 0.0
28/01:00am 14.6 10.2 0.5 38 6.2 ESE 13 17 7 9 1022.3 1019.2 0.0
28/12:30am 15.2 10.0 0.2 36 6.7 ESE 17 22 9 12 1022.4 1019.3 0.0
28/12:00am 14.8 10.7 -0.5 35 6.6 ESE 11 15 6 8 1022.5 1019.4 0.0
 
Date/Time
EDT
Temp
°C
App
Temp
°C
Dew
Point
Rel
Hum
%
Delta-T
°C
Wind Press
QNH
hPa
Press
MSL
hPa
Rain
since 9 am
mm
Dir
 
Spd
km/h
Gust
km/h
Spd
kts
Gust
kts
27/11:30pm 16.1 12.7 -0.6 32 7.3 ENE 7 11 4 6 1022.5 1019.4 0.0
27/11:00pm 16.3 13.1 -0.8 31 7.5 ESE 6 11 3 6 1022.5 1019.4 0.0
27/10:30pm 16.6 14.1 -1.0 30 7.7 WSW 2 7 1 4 1022.6 1019.5 0.0
27/10:00pm 17.2 13.9 -1.0 29 8.0 NNW 6 9 3 5 1022.5 1019.4 0.0
27/09:30pm 17.1 15.0 -1.1 29 8.0 CALM 0 7 0 4 1022.4 1019.3 0.0
27/09:00pm 17.0 13.5 -1.1 29 7.9 SE 7 11 4 6 1022.2 1019.1 0.0
27/08:30pm 18.3 12.9 -1.0 27 8.6 W 17 22 9 12 1021.9 1018.8 0.0
27/08:00pm 18.6 13.2 -1.3 26 8.8 WSW 17 22 9 12 1021.5 1018.5 0.0
27/07:30pm 18.8 13.7 -2.2 24 9.1 W 15 20 8 11 1021.1 1018.0 0.0
27/07:00pm 19.7 15.2 -3.2 21 9.8 W 11 15 6 8 1021.0 1017.9 0.0
27/06:30pm 21.3 16.7 -4.0 18 10.9 W 11 22 6 12 1020.7 1017.6 0.0
27/06:00pm 21.9 16.1 -4.2 17 11.2 W 17 24 9 13 1020.5 1017.4 0.0
27/05:30pm 22.5 15.9 -3.7 17 11.4 W 22 32 12 17 1020.2 1017.0 0.0
27/05:00pm 22.9 16.6 -4.2 16 11.7 WNW 20 30 11 16 1020.2 1017.0 0.0

Other Formats:

Comma delimited format used in spreadsheet applications
http://www.bom.gov.au/fwo/IDN60801/IDN60801.95747.axf

JavaScript Object Notation format (JSON) in row-major order
http://www.bom.gov.au/fwo/IDN60801/IDN60801.95747.json